createdAt,value
2023-01-10T00:03:24.178Z,88.98
2023-01-10T00:08:26.211Z,88.97
2023-01-10T00:13:30.200Z,88.79
2023-01-10T00:18:32.228Z,89.05
2023-01-10T00:23:34.221Z,89.59
2023-01-10T00:28:39.440Z,90.36
2023-01-10T00:33:41.833Z,90.13
2023-01-10T00:38:43.828Z,90.00
2023-01-10T00:43:59.195Z,89.67
2023-01-10T00:49:01.951Z,90.06
2023-01-10T00:54:04.693Z,91.11
2023-01-10T00:59:08.496Z,88.47
2023-01-10T01:04:10.500Z,89.27
2023-01-10T01:09:12.596Z,90.11
2023-01-10T01:14:15.909Z,90.12
2023-01-10T01:19:18.200Z,90.45
2023-01-10T01:24:21.355Z,90.86
2023-01-10T01:29:29.995Z,90.54
2023-01-10T01:34:37.476Z,91.95
2023-01-10T01:39:39.522Z,89.93
2023-01-10T01:44:42.886Z,88.75
2023-01-10T01:49:45.824Z,89.59
2023-01-10T01:54:48.149Z,89.36
2023-01-10T01:59:54.838Z,90.53
2023-01-10T02:05:00.758Z,90.22
2023-01-10T02:10:09.537Z,90.42
2023-01-10T02:15:15.146Z,90.10
2023-01-10T02:20:19.368Z,90.72
2023-01-10T02:25:45.020Z,90.63
2023-01-10T02:31:06.520Z,91.55
2023-01-10T02:36:29.937Z,90.98
2023-01-10T02:41:39.313Z,90.63
2023-01-10T02:46:47.090Z,91.71
2023-01-10T02:51:50.576Z,91.97
2023-01-10T02:57:18.223Z,91.15
2023-01-10T03:02:41.564Z,91.88
2023-01-10T03:07:53.527Z,92.09
2023-01-10T03:12:59.319Z,90.91
2023-01-10T03:18:05.397Z,91.59
2023-01-10T03:23:11.062Z,92.68
2023-01-10T03:28:17.767Z,91.94
2023-01-10T03:33:25.086Z,91.77
2023-01-10T03:38:35.260Z,92.88
2023-01-10T03:44:10.381Z,92.25
2023-01-10T03:49:15.081Z,92.63
2023-01-10T03:54:18.702Z,92.16
2023-01-10T03:59:22.817Z,93.47
2023-01-10T04:04:24.975Z,92.57
2023-01-10T04:09:28.376Z,92.29
2023-01-10T04:14:32.719Z,92.82
2023-01-10T04:19:34.640Z,93.46
2023-01-10T04:24:38.819Z,93.27
2023-01-10T04:29:41.004Z,93.19
2023-01-10T04:34:43.456Z,93.18
2023-01-10T04:39:46.794Z,92.36
2023-01-10T04:44:48.748Z,91.57
2023-01-10T04:49:50.801Z,90.31
2023-01-10T04:54:54.163Z,88.05
2023-01-10T04:59:56.097Z,90.27
2023-01-10T05:04:58.564Z,87.77
2023-01-10T05:10:02.302Z,91.53
2023-01-10T05:15:05.441Z,91.56
2023-01-10T05:20:08.863Z,90.58
2023-01-10T05:25:12.517Z,90.98
2023-01-10T05:30:15.321Z,90.83
2023-01-10T05:35:17.410Z,91.88
2023-01-10T05:40:20.958Z,91.04
2023-01-10T05:45:23.292Z,90.60
2023-01-10T05:50:25.326Z,91.31
2023-01-10T05:55:28.596Z,90.97
2023-01-10T06:00:30.875Z,91.28
2023-01-10T06:05:33.233Z,92.33
2023-01-10T06:10:36.585Z,90.67
2023-01-10T06:15:38.706Z,91.32
2023-01-10T06:20:41.291Z,91.63
2023-01-10T06:25:44.672Z,91.09
2023-01-10T06:30:47.895Z,91.59
2023-01-10T06:35:52.147Z,91.39
2023-01-10T06:40:55.730Z,91.06
2023-01-10T06:45:57.804Z,90.25
2023-01-10T06:50:59.775Z,90.13
2023-01-10T06:56:03.187Z,90.47
2023-01-10T07:01:05.829Z,90.83
2023-01-10T07:06:11.971Z,92.08
2023-01-10T07:11:16.617Z,91.46
2023-01-10T07:16:18.817Z,92.53
2023-01-10T07:21:20.952Z,91.06
2023-01-10T07:26:24.427Z,91.52
2023-01-10T07:31:26.466Z,92.31
2023-01-10T07:36:28.521Z,92.88
2023-01-10T07:41:31.783Z,92.69
2023-01-10T07:46:33.775Z,92.19
2023-01-10T07:51:35.821Z,92.39
2023-01-10T07:56:39.440Z,93.20
2023-01-10T08:01:41.425Z,92.45
2023-01-10T08:06:43.462Z,92.99
2023-01-10T08:11:46.791Z,92.52
2023-01-10T08:16:48.740Z,91.85
2023-01-10T08:21:50.737Z,92.15
2023-01-10T08:26:54.090Z,92.00
2023-01-10T08:31:56.343Z,90.94
2023-01-10T08:36:58.288Z,91.53
2023-01-10T08:42:01.595Z,91.20
2023-01-10T08:47:03.768Z,90.96
2023-01-10T08:52:06.356Z,91.66
2023-01-10T08:57:10.027Z,91.66
2023-01-10T09:02:13.279Z,90.75
2023-01-10T09:07:15.311Z,91.67
2023-01-10T09:12:37.402Z,92.15
2023-01-10T09:17:39.718Z,91.08
2023-01-10T09:22:41.710Z,91.96
2023-01-10T09:27:45.193Z,91.18
2023-01-10T09:32:50.198Z,91.14
2023-01-10T09:37:54.071Z,90.69
2023-01-10T09:43:00.942Z,91.15
2023-01-10T09:48:05.973Z,91.10
2023-01-10T09:53:12.860Z,90.57
2023-01-10T09:58:19.173Z,91.90
2023-01-10T10:03:27.093Z,91.42
2023-01-10T10:08:29.625Z,89.59
2023-01-10T10:13:45.351Z,91.15
2023-01-10T10:18:58.909Z,91.82
2023-01-10T10:24:17.995Z,90.90
2023-01-10T10:29:47.840Z,91.06
2023-01-10T10:34:53.666Z,90.05
2023-01-10T10:39:59.314Z,90.97
2023-01-10T10:45:06.153Z,91.29
2023-01-10T10:50:20.503Z,90.92
2023-01-10T10:55:29.207Z,90.53
2023-01-10T11:00:33.752Z,89.99
2023-01-10T11:05:39.588Z,90.14
2023-01-10T11:10:44.233Z,90.08
2023-01-10T11:15:49.580Z,91.52
2023-01-10T11:20:58.132Z,91.12
2023-01-10T11:26:00.638Z,90.76
2023-01-10T11:31:04.522Z,90.63
2023-01-10T11:36:12.839Z,90.93
2023-01-10T11:41:27.161Z,90.08
2023-01-10T11:46:30.578Z,89.88
2023-01-10T11:51:36.487Z,89.79
2023-01-10T11:56:43.529Z,91.21
2023-01-10T12:01:53.693Z,91.07
2023-01-10T12:06:57.652Z,91.55
2023-01-10T12:12:02.391Z,91.30
2023-01-10T12:17:05.750Z,90.88
2023-01-10T12:22:12.121Z,90.20
2023-01-10T12:27:16.775Z,90.15
2023-01-10T12:32:26.269Z,88.96
2023-01-10T12:37:37.318Z,89.96
2023-01-10T12:43:07.722Z,90.71
2023-01-10T12:48:20.928Z,91.72
2023-01-10T12:53:30.293Z,90.51
2023-01-10T12:58:40.069Z,90.82
2023-01-10T13:03:45.391Z,91.05
2023-01-10T13:08:48.165Z,89.46
2023-01-10T13:13:56.854Z,89.71
2023-01-10T13:19:06.083Z,89.44
2023-01-10T13:24:20.852Z,90.09
2023-01-10T13:29:25.014Z,89.85
2023-01-10T13:34:34.894Z,89.67
2023-01-10T13:39:39.323Z,90.48
2023-01-10T13:45:15.743Z,90.53
2023-01-10T13:50:51.255Z,90.73
2023-01-10T13:55:56.679Z,90.73
2023-01-10T14:01:39.741Z,89.92
2023-01-10T14:06:43.277Z,90.55
2023-01-10T14:11:52.773Z,89.97
2023-01-10T14:16:56.648Z,90.58
2023-01-10T14:22:02.856Z,90.85
2023-01-10T14:27:06.877Z,91.34
2023-01-10T14:32:24.727Z,91.33
2023-01-10T14:37:32.016Z,89.95
2023-01-10T14:42:35.907Z,92.18
2023-01-10T14:47:39.044Z,92.11
2023-01-10T14:52:43.218Z,92.30
2023-01-10T14:57:53.114Z,91.77
2023-01-10T15:02:57.616Z,91.65
2023-01-10T15:13:29.889Z,92.31
2023-01-10T15:18:38.486Z,92.69
2023-01-10T15:23:42.560Z,91.85
2023-01-10T15:28:49.274Z,92.26
2023-01-10T15:33:56.608Z,91.90
2023-01-10T15:38:58.778Z,92.29
2023-01-10T15:44:24.129Z,92.82
2023-01-10T15:49:26.686Z,93.09
2023-01-10T15:54:31.273Z,93.65
2023-01-10T15:59:38.593Z,93.44
2023-01-10T16:04:41.761Z,93.38
2023-01-10T16:09:49.882Z,93.98
2023-01-10T16:14:53.348Z,93.00
2023-01-10T16:19:55.307Z,93.61
2023-01-10T16:24:57.339Z,92.55
2023-01-10T16:30:00.626Z,92.51
2023-01-10T16:35:02.745Z,92.43
2023-01-10T16:40:17.133Z,93.06
2023-01-10T16:45:20.535Z,92.94
2023-01-10T16:50:22.697Z,93.41
2023-01-10T16:55:29.819Z,93.14
2023-01-10T17:00:33.626Z,93.05
2023-01-10T17:05:37.007Z,92.65
2023-01-10T17:10:38.982Z,93.58
2023-01-10T17:15:42.317Z,93.34
2023-01-10T17:20:45.234Z,93.40
2023-01-10T17:25:49.630Z,93.77
2023-01-10T17:30:53.041Z,92.42
2023-01-10T17:35:56.402Z,92.89
2023-01-10T17:41:02.001Z,92.98
2023-01-10T17:46:05.908Z,92.37
2023-01-10T17:51:09.010Z,92.81
2023-01-10T17:56:11.431Z,93.36
2023-01-10T18:01:21.772Z,92.64
2023-01-10T18:06:25.849Z,93.35
2023-01-10T18:11:28.841Z,92.95
2023-01-10T18:16:32.337Z,92.22
2023-01-10T18:21:34.304Z,92.10
2023-01-10T18:26:36.323Z,92.76
2023-01-10T18:31:41.318Z,91.65
2023-01-10T18:36:43.361Z,92.91
2023-01-10T18:41:45.341Z,92.63
2023-01-10T18:46:48.799Z,92.44
2023-01-10T18:51:52.387Z,92.74
2023-01-10T18:56:56.482Z,92.55
2023-01-10T19:01:59.944Z,91.91
2023-01-10T19:07:01.950Z,92.00
2023-01-10T19:12:04.239Z,91.75
2023-01-10T19:17:07.698Z,92.11
2023-01-10T19:22:09.831Z,92.25
2023-01-10T19:27:11.904Z,93.22
2023-01-10T19:32:15.368Z,92.33
2023-01-10T19:37:17.433Z,92.27
2023-01-10T19:42:19.440Z,92.67
2023-01-10T19:47:22.801Z,91.73
2023-01-10T19:52:24.785Z,92.23
2023-01-10T19:57:26.792Z,91.68
2023-01-10T20:02:30.215Z,92.12
2023-01-10T20:07:32.236Z,92.57
2023-01-10T20:12:35.172Z,91.82
2023-01-10T20:17:40.310Z,92.88
2023-01-10T20:22:42.328Z,92.54
2023-01-10T20:27:44.353Z,91.96
2023-01-10T20:32:47.758Z,92.54
2023-01-10T20:37:49.817Z,91.26
2023-01-10T20:42:51.846Z,92.37
2023-01-10T20:47:56.372Z,92.01
2023-01-10T20:52:58.339Z,92.55
2023-01-10T20:58:00.324Z,91.80
2023-01-10T21:03:03.860Z,91.15
2023-01-10T21:08:05.949Z,91.41
2023-01-10T21:13:08.007Z,91.52
2023-01-10T21:18:13.154Z,91.69
2023-01-10T21:23:15.384Z,92.11
2023-01-10T21:28:17.711Z,92.30
2023-01-10T21:33:21.070Z,91.54
2023-01-10T21:38:23.452Z,92.02
2023-01-10T21:43:25.463Z,92.17
2023-01-10T21:48:29.685Z,92.11
2023-01-10T21:53:31.686Z,92.49
2023-01-10T21:58:33.719Z,93.32
2023-01-10T22:03:37.160Z,93.40
2023-01-10T22:08:39.169Z,92.90
2023-01-10T22:13:41.175Z,92.45
2023-01-10T22:18:45.563Z,92.84
2023-01-10T22:23:47.671Z,92.30
2023-01-10T22:28:49.730Z,91.23
2023-01-10T22:33:53.089Z,90.52
2023-01-10T22:38:55.060Z,90.71
2023-01-10T22:43:57.068Z,89.21
2023-01-10T22:49:01.214Z,92.13
2023-01-10T22:54:04.414Z,91.55
2023-01-10T22:59:06.566Z,90.46
2023-01-10T23:04:09.999Z,91.07
2023-01-10T23:09:12.158Z,92.00
2023-01-10T23:14:14.634Z,91.38
2023-01-10T23:19:17.958Z,92.05
2023-01-10T23:24:20.066Z,89.79
2023-01-10T23:29:22.031Z,90.47
2023-01-10T23:34:25.672Z,91.08
2023-01-10T23:39:27.659Z,90.32
2023-01-10T23:44:30.677Z,92.53
2023-01-10T23:49:34.812Z,92.33
2023-01-10T23:54:36.825Z,91.46
2023-01-10T23:59:38.756Z,92.20
